createdAt,value
2022-10-31T00:00:18.404Z,13.77
2022-10-31T00:00:50.213Z,13.40
2022-10-31T00:01:25.979Z,13.13
2022-10-31T00:01:57.299Z,13.63
2022-10-31T00:02:28.648Z,13.38
2022-10-31T00:03:00.202Z,12.90
2022-10-31T00:03:31.718Z,13.43
2022-10-31T00:04:04.016Z,13.20
2022-10-31T00:04:35.392Z,14.48
2022-10-31T00:05:06.984Z,14.43
2022-10-31T00:05:45.182Z,12.63
2022-10-31T00:06:19.017Z,12.88
2022-10-31T00:06:50.289Z,12.65
2022-10-31T00:07:21.592Z,12.95
2022-10-31T00:07:54.009Z,13.52
2022-10-31T00:08:25.302Z,13.98
2022-10-31T00:08:59.401Z,14.10
2022-10-31T00:09:30.721Z,13.80
2022-10-31T00:10:02.024Z,12.98
2022-10-31T00:10:33.288Z,12.85
2022-10-31T00:11:04.730Z,13.20
2022-10-31T00:11:36.119Z,12.40
2022-10-31T00:12:07.478Z,13.48
2022-10-31T00:12:38.794Z,13.68
2022-10-31T00:13:11.118Z,13.10
2022-10-31T00:13:42.449Z,12.65
2022-10-31T00:14:13.733Z,13.38
2022-10-31T00:14:45.027Z,13.90
2022-10-31T00:15:16.570Z,14.75
2022-10-31T00:15:47.868Z,14.30
2022-10-31T00:16:24.743Z,14.35
2022-10-31T00:16:56.043Z,14.38
2022-10-31T00:17:27.496Z,14.43
2022-10-31T00:17:59.909Z,12.82
2022-10-31T00:18:31.376Z,13.82
2022-10-31T00:19:05.367Z,14.82
2022-10-31T00:19:36.695Z,13.57
2022-10-31T00:20:08.590Z,13.43
2022-10-31T00:20:40.084Z,13.80
2022-10-31T00:21:11.372Z,12.57
2022-10-31T00:21:42.665Z,12.43
2022-10-31T00:22:13.988Z,12.52
2022-10-31T00:22:45.270Z,13.50
2022-10-31T00:23:16.559Z,13.38
2022-10-31T00:23:47.902Z,13.85
2022-10-31T00:24:19.215Z,14.35
2022-10-31T00:24:50.480Z,13.82
2022-10-31T00:25:21.875Z,14.80
2022-10-31T00:25:53.192Z,14.30
2022-10-31T00:26:24.488Z,14.20
2022-10-31T00:26:55.760Z,14.45
2022-10-31T00:27:27.039Z,16.05
2022-10-31T00:27:58.819Z,16.10
2022-10-31T00:28:31.318Z,15.23
2022-10-31T00:29:02.854Z,15.23
2022-10-31T00:29:34.132Z,14.63
2022-10-31T00:30:06.083Z,15.50
2022-10-31T00:30:37.354Z,14.30
2022-10-31T00:31:10.483Z,15.07
2022-10-31T00:31:41.817Z,15.20
2022-10-31T00:32:13.092Z,14.55
2022-10-31T00:32:44.431Z,14.85
2022-10-31T00:33:15.711Z,15.50
2022-10-31T00:33:47.078Z,16.23
2022-10-31T00:34:18.363Z,17.38
2022-10-31T00:34:49.658Z,19.58
2022-10-31T00:35:20.958Z,19.67
2022-10-31T00:35:52.267Z,22.23
2022-10-31T00:36:23.684Z,21.80
2022-10-31T00:36:55.032Z,21.30
2022-10-31T00:37:26.342Z,21.67
2022-10-31T00:37:57.653Z,20.90
2022-10-31T00:38:29.107Z,20.63
2022-10-31T00:39:00.439Z,20.50
2022-10-31T00:39:31.748Z,20.48
2022-10-31T00:40:03.360Z,20.23
2022-10-31T00:40:34.629Z,19.92
2022-10-31T00:41:05.899Z,19.08
2022-10-31T00:41:37.435Z,19.88
2022-10-31T00:42:08.752Z,19.50
2022-10-31T00:42:42.506Z,18.98
2022-10-31T00:43:13.849Z,17.45
2022-10-31T00:43:45.647Z,16.80
2022-10-31T00:44:16.956Z,14.60
2022-10-31T00:44:48.265Z,14.65
2022-10-31T00:45:19.671Z,13.73
2022-10-31T00:45:51.461Z,13.75
2022-10-31T00:46:23.950Z,14.27
2022-10-31T00:46:55.212Z,14.45
2022-10-31T00:47:26.511Z,14.50
2022-10-31T00:47:58.024Z,15.48
2022-10-31T00:48:30.108Z,16.48
2022-10-31T00:49:01.397Z,16.75
2022-10-31T00:49:32.703Z,16.17
2022-10-31T00:50:05.779Z,17.27
2022-10-31T00:50:37.580Z,16.50
2022-10-31T00:51:09.291Z,16.50
2022-10-31T00:51:40.566Z,16.98
2022-10-31T00:52:11.878Z,17.30
2022-10-31T00:52:43.190Z,16.55
2022-10-31T00:53:14.528Z,15.52
2022-10-31T00:53:45.792Z,15.02
2022-10-31T00:54:17.075Z,16.08
2022-10-31T00:54:48.367Z,15.50
2022-10-31T00:55:19.640Z,14.80
2022-10-31T00:55:51.413Z,16.27
2022-10-31T00:56:22.700Z,17.38
2022-10-31T00:56:53.971Z,17.30
2022-10-31T00:57:25.308Z,18.95
2022-10-31T00:57:56.786Z,20.35
2022-10-31T00:58:28.274Z,18.85
2022-10-31T00:58:59.557Z,17.58
2022-10-31T00:59:30.832Z,18.08
2022-10-31T01:00:02.118Z,18.67
2022-10-31T01:00:33.490Z,19.73
2022-10-31T01:01:05.583Z,18.17
2022-10-31T01:01:37.018Z,18.92
2022-10-31T01:02:08.625Z,20.08
2022-10-31T01:02:40.129Z,20.42
2022-10-31T01:03:11.551Z,19.95
2022-10-31T01:03:42.890Z,18.85
2022-10-31T01:04:14.211Z,20.85
2022-10-31T01:04:45.494Z,20.77
2022-10-31T01:05:17.145Z,20.55
2022-10-31T01:06:06.767Z,20.02
2022-10-31T01:06:38.135Z,20.40
2022-10-31T01:07:09.773Z,20.50
2022-10-31T01:07:42.299Z,20.88
2022-10-31T01:08:13.615Z,20.65
2022-10-31T01:08:47.474Z,21.05
2022-10-31T01:09:18.957Z,19.65
2022-10-31T01:09:50.266Z,20.45
2022-10-31T01:10:21.552Z,19.80
2022-10-31T01:11:13.569Z,21.13
2022-10-31T01:11:44.856Z,19.05
2022-10-31T01:12:16.274Z,19.67
2022-10-31T01:12:49.544Z,19.80
2022-10-31T01:13:57.138Z,20.25
2022-10-31T01:14:28.445Z,21.48
2022-10-31T01:14:59.720Z,21.17
2022-10-31T01:15:31.006Z,20.98
2022-10-31T01:16:03.962Z,20.45
2022-10-31T01:16:35.304Z,21.77
2022-10-31T01:17:06.581Z,21.77
2022-10-31T01:17:38.148Z,21.42
2022-10-31T01:18:09.446Z,20.95
2022-10-31T01:18:40.777Z,20.77
2022-10-31T01:19:12.047Z,21.60
2022-10-31T01:19:43.365Z,22.85
2022-10-31T01:20:15.897Z,21.80
2022-10-31T01:20:47.183Z,21.38
2022-10-31T01:21:24.386Z,20.55
2022-10-31T01:21:56.312Z,19.85
2022-10-31T01:22:27.611Z,19.60
2022-10-31T01:22:58.918Z,20.90
2022-10-31T01:23:30.654Z,20.00
2022-10-31T01:24:04.920Z,19.73
2022-10-31T01:24:36.252Z,20.92
2022-10-31T01:25:09.350Z,19.98
2022-10-31T01:25:41.148Z,18.42
2022-10-31T01:26:15.337Z,20.15
2022-10-31T01:26:46.630Z,19.67
2022-10-31T01:27:17.925Z,19.42
2022-10-31T01:27:49.205Z,20.88
2022-10-31T01:28:20.570Z,19.27
2022-10-31T01:28:53.598Z,19.73
2022-10-31T01:29:24.867Z,21.88
2022-10-31T01:29:56.136Z,19.58
2022-10-31T01:30:27.424Z,19.10
2022-10-31T01:31:09.629Z,18.60
2022-10-31T01:31:40.938Z,17.83
2022-10-31T01:32:12.457Z,17.83
2022-10-31T01:32:43.732Z,18.33
2022-10-31T01:33:15.007Z,18.23
2022-10-31T01:33:46.730Z,19.20
2022-10-31T01:34:18.113Z,18.25
2022-10-31T01:34:49.410Z,18.58
2022-10-31T01:35:20.693Z,18.55
2022-10-31T01:35:52.025Z,18.45
2022-10-31T01:36:24.689Z,17.02
2022-10-31T01:36:55.980Z,17.50
2022-10-31T01:37:27.248Z,16.80
2022-10-31T01:37:58.536Z,17.00
2022-10-31T01:38:31.047Z,17.27
2022-10-31T01:39:05.898Z,15.98
2022-10-31T01:39:37.217Z,15.70
2022-10-31T01:40:09.284Z,17.33
2022-10-31T01:40:40.567Z,17.52
2022-10-31T01:41:14.736Z,17.08
2022-10-31T01:41:48.948Z,18.50
2022-10-31T01:42:22.495Z,19.40
2022-10-31T01:42:53.759Z,18.70
2022-10-31T01:43:25.086Z,18.52
2022-10-31T01:43:59.311Z,18.70
2022-10-31T01:44:30.524Z,17.23
2022-10-31T01:45:02.658Z,18.48
2022-10-31T01:45:34.109Z,17.73
2022-10-31T01:46:05.412Z,17.95
2022-10-31T01:46:41.799Z,17.52
2022-10-31T01:47:17.631Z,18.33
2022-10-31T01:47:50.244Z,18.48
2022-10-31T01:48:27.288Z,19.85
2022-10-31T01:49:02.308Z,18.83
2022-10-31T01:49:41.092Z,19.05
2022-10-31T01:50:22.587Z,19.05
2022-10-31T01:50:55.703Z,19.30
2022-10-31T01:51:31.149Z,20.42
2022-10-31T01:52:08.803Z,20.17
2022-10-31T01:52:45.549Z,19.58
2022-10-31T01:53:17.570Z,19.55
2022-10-31T01:53:52.197Z,20.60
2022-10-31T01:54:27.741Z,19.80
2022-10-31T01:55:07.586Z,18.52
2022-10-31T01:55:45.816Z,18.77
2022-10-31T01:56:18.432Z,18.77
2022-10-31T01:56:53.161Z,19.10
2022-10-31T01:57:25.773Z,17.85
2022-10-31T01:58:03.168Z,17.17
2022-10-31T01:58:35.146Z,16.17
2022-10-31T01:59:11.937Z,16.70
2022-10-31T01:59:47.665Z,16.90
2022-10-31T02:00:20.931Z,16.80
2022-10-31T02:00:59.620Z,15.93
2022-10-31T02:01:33.525Z,16.67
2022-10-31T02:02:04.989Z,16.60
2022-10-31T02:02:36.824Z,18.25
2022-10-31T02:03:08.186Z,18.35
2022-10-31T02:03:39.531Z,18.35
2022-10-31T02:04:11.007Z,18.92
2022-10-31T02:04:42.790Z,19.23
2022-10-31T02:05:18.497Z,19.05
2022-10-31T02:05:50.885Z,17.23
2022-10-31T02:06:41.058Z,17.25
2022-10-31T02:07:28.036Z,17.63
2022-10-31T02:08:06.322Z,17.65
2022-10-31T02:08:38.790Z,17.63
2022-10-31T02:09:10.110Z,17.25
2022-10-31T02:09:43.193Z,17.02
2022-10-31T02:10:14.865Z,15.55
2022-10-31T02:10:46.180Z,15.80
2022-10-31T02:11:17.480Z,17.83
2022-10-31T02:11:48.770Z,17.27
2022-10-31T02:12:20.919Z,17.48
2022-10-31T02:12:59.020Z,17.67
2022-10-31T02:13:30.910Z,18.38
2022-10-31T02:14:05.642Z,16.80
2022-10-31T02:14:38.387Z,17.02
2022-10-31T02:15:10.396Z,18.17
2022-10-31T02:15:43.655Z,18.13
2022-10-31T02:16:14.944Z,17.08
2022-10-31T02:16:46.219Z,16.50
2022-10-31T02:17:17.591Z,17.35
2022-10-31T02:17:49.040Z,16.90
2022-10-31T02:18:21.348Z,17.17
2022-10-31T02:18:52.790Z,17.42
2022-10-31T02:19:33.057Z,17.67
2022-10-31T02:20:16.923Z,17.33
2022-10-31T02:20:48.237Z,16.13
2022-10-31T02:21:27.663Z,15.90
2022-10-31T02:22:16.552Z,16.45
2022-10-31T02:23:11.649Z,16.85
2022-10-31T02:24:06.742Z,14.98
2022-10-31T02:24:47.114Z,15.50
2022-10-31T02:26:27.272Z,15.35
2022-10-31T02:27:09.554Z,15.82
2022-10-31T02:27:49.726Z,17.20
2022-10-31T02:28:58.403Z,17.52
2022-10-31T02:29:48.249Z,15.07
2022-10-31T02:30:23.705Z,14.95
2022-10-31T02:31:16.869Z,16.02
2022-10-31T02:32:01.914Z,15.90
2022-10-31T02:32:44.288Z,15.63
2022-10-31T02:33:39.848Z,16.35
2022-10-31T02:34:34.349Z,16.08
2022-10-31T02:35:18.050Z,17.38
2022-10-31T02:36:17.401Z,16.33
2022-10-31T02:37:13.915Z,15.57
2022-10-31T02:37:54.779Z,17.83
2022-10-31T02:38:36.428Z,17.55
2022-10-31T02:39:23.314Z,17.88
2022-10-31T02:40:03.939Z,17.73
2022-10-31T02:40:45.064Z,16.77
2022-10-31T02:41:30.464Z,16.20
2022-10-31T02:42:10.466Z,17.95
2022-10-31T02:43:01.249Z,16.73
2022-10-31T02:43:44.048Z,16.10
2022-10-31T02:44:29.292Z,16.83
2022-10-31T02:45:28.683Z,16.38
2022-10-31T02:46:09.580Z,17.20
2022-10-31T02:46:49.533Z,15.25
2022-10-31T02:47:28.116Z,16.08
2022-10-31T02:48:04.416Z,16.80
2022-10-31T02:48:40.004Z,17.30
2022-10-31T02:49:18.583Z,17.35
2022-10-31T02:49:58.231Z,17.25
2022-10-31T02:50:35.473Z,16.05
2022-10-31T02:51:07.253Z,15.55
2022-10-31T02:51:39.988Z,15.82
2022-10-31T02:52:18.021Z,16.27
2022-10-31T02:52:53.316Z,16.02
2022-10-31T02:53:24.746Z,17.10
2022-10-31T02:53:56.073Z,18.88
2022-10-31T02:54:28.844Z,18.60
2022-10-31T02:55:18.622Z,20.02
2022-10-31T02:55:57.233Z,17.33
2022-10-31T02:56:28.531Z,17.25
2022-10-31T02:57:06.967Z,17.23
2022-10-31T02:57:39.799Z,15.68
2022-10-31T02:58:16.228Z,15.13
2022-10-31T02:59:04.682Z,15.00
2022-10-31T02:59:41.433Z,15.10
2022-10-31T03:00:13.084Z,15.52
2022-10-31T03:01:22.936Z,15.35
2022-10-31T03:02:16.121Z,15.18
2022-10-31T03:02:58.858Z,15.18
2022-10-31T03:04:17.014Z,15.68
2022-10-31T03:05:08.782Z,14.15
2022-10-31T03:05:58.090Z,15.48
2022-10-31T03:06:35.269Z,15.32
2022-10-31T03:07:16.905Z,15.77
2022-10-31T03:07:57.145Z,16.02
2022-10-31T03:08:36.655Z,15.02
2022-10-31T03:09:22.918Z,15.65
2022-10-31T03:10:19.684Z,14.35
2022-10-31T03:11:00.036Z,15.40
2022-10-31T03:11:44.094Z,13.93
2022-10-31T03:12:19.132Z,15.25
2022-10-31T03:13:04.779Z,15.90
2022-10-31T03:13:51.216Z,15.90
2022-10-31T03:14:30.882Z,14.98
2022-10-31T03:15:15.081Z,16.45
2022-10-31T03:15:51.346Z,15.57
2022-10-31T03:16:44.762Z,14.70
2022-10-31T03:17:25.645Z,15.98
2022-10-31T03:18:02.654Z,15.77
2022-10-31T03:18:40.102Z,16.77
2022-10-31T03:19:17.341Z,17.67
2022-10-31T03:19:53.836Z,16.08
2022-10-31T03:20:30.844Z,16.05
2022-10-31T03:21:07.788Z,15.80
2022-10-31T03:22:17.478Z,16.30
2022-10-31T03:22:48.851Z,16.77
2022-10-31T03:23:21.964Z,18.52
2022-10-31T03:23:55.617Z,19.75
2022-10-31T03:24:33.416Z,18.30
2022-10-31T03:25:05.822Z,19.10
2022-10-31T03:25:38.416Z,19.27
2022-10-31T03:26:12.285Z,20.42
2022-10-31T03:26:49.054Z,19.92
2022-10-31T03:27:24.498Z,20.85
2022-10-31T03:27:58.364Z,21.08
2022-10-31T03:28:36.543Z,22.42
2022-10-31T03:29:11.193Z,21.27
2022-10-31T03:29:45.346Z,22.60
2022-10-31T03:30:17.976Z,22.33
2022-10-31T03:30:50.544Z,22.30
2022-10-31T03:31:26.389Z,22.88
2022-10-31T03:32:07.601Z,22.33
2022-10-31T03:32:49.943Z,22.90
2022-10-31T03:33:29.750Z,22.58
2022-10-31T03:34:02.460Z,22.50
2022-10-31T03:34:36.381Z,21.73
2022-10-31T03:35:10.872Z,21.67
2022-10-31T03:35:45.541Z,20.95
2022-10-31T03:36:18.649Z,21.33
2022-10-31T03:36:53.203Z,20.10
2022-10-31T03:37:26.673Z,20.58
2022-10-31T03:38:04.095Z,20.48
2022-10-31T03:38:41.452Z,19.45
2022-10-31T03:39:18.053Z,21.27
2022-10-31T03:39:50.605Z,21.02
2022-10-31T03:40:25.821Z,20.35
2022-10-31T03:41:03.987Z,20.23
2022-10-31T03:41:49.250Z,19.58
2022-10-31T03:42:26.024Z,17.65
2022-10-31T03:43:03.225Z,16.30
2022-10-31T03:43:43.518Z,17.65
2022-10-31T03:44:22.269Z,17.38
2022-10-31T03:45:00.395Z,16.60
2022-10-31T03:45:32.002Z,17.17
2022-10-31T03:46:04.280Z,17.58
2022-10-31T03:46:35.812Z,17.67
2022-10-31T03:47:07.560Z,16.73
2022-10-31T03:47:39.844Z,16.65
2022-10-31T03:48:11.565Z,16.90
2022-10-31T03:48:42.891Z,17.48
2022-10-31T03:49:15.361Z,16.48
2022-10-31T03:49:46.683Z,17.05
2022-10-31T03:50:18.995Z,17.05
2022-10-31T03:51:02.797Z,17.63
2022-10-31T03:51:50.556Z,16.23
2022-10-31T03:52:48.133Z,16.27
2022-10-31T03:53:41.824Z,16.67
2022-10-31T03:54:25.174Z,15.98
2022-10-31T03:55:03.275Z,17.10
2022-10-31T03:55:42.475Z,17.15
2022-10-31T03:56:22.093Z,17.38
2022-10-31T03:56:58.180Z,17.40
2022-10-31T03:57:40.197Z,16.83
2022-10-31T03:59:18.513Z,16.65
2022-10-31T03:59:56.917Z,15.00
2022-10-31T04:00:28.369Z,16.02
2022-10-31T04:01:03.031Z,16.50
2022-10-31T04:01:39.656Z,15.73
2022-10-31T04:02:17.663Z,15.27
2022-10-31T04:03:10.005Z,16.00
2022-10-31T04:03:42.165Z,15.55
2022-10-31T04:04:17.828Z,16.85
2022-10-31T04:04:50.079Z,15.02
2022-10-31T04:05:22.286Z,16.17
2022-10-31T04:05:57.575Z,16.27
2022-10-31T04:06:30.072Z,15.35
2022-10-31T04:07:02.674Z,16.08
2022-10-31T04:07:39.737Z,16.08
2022-10-31T04:08:16.329Z,17.02
2022-10-31T04:08:58.475Z,18.13
2022-10-31T04:09:33.347Z,17.92
2022-10-31T04:10:08.762Z,18.08
2022-10-31T04:10:41.682Z,17.30
2022-10-31T04:11:14.694Z,17.25
2022-10-31T04:11:52.732Z,18.23
2022-10-31T04:12:26.067Z,17.85
2022-10-31T04:13:08.960Z,19.58
2022-10-31T04:13:41.714Z,19.92
2022-10-31T04:14:13.159Z,18.52
2022-10-31T04:14:48.516Z,19.52
2022-10-31T04:15:20.875Z,18.95
2022-10-31T04:15:53.584Z,19.30
2022-10-31T04:16:25.877Z,19.40
2022-10-31T04:16:57.407Z,18.33
2022-10-31T04:17:32.637Z,18.05
2022-10-31T04:18:06.083Z,18.95
2022-10-31T04:18:37.509Z,19.08
2022-10-31T04:19:08.833Z,19.55
2022-10-31T04:19:40.283Z,19.63
2022-10-31T04:20:11.875Z,18.50
2022-10-31T04:20:43.317Z,18.98
2022-10-31T04:21:14.588Z,17.45
2022-10-31T04:21:45.966Z,17.48
2022-10-31T04:22:17.326Z,17.45
2022-10-31T04:22:48.597Z,17.05
2022-10-31T04:23:23.217Z,17.23
2022-10-31T04:23:54.535Z,17.33
2022-10-31T04:24:25.829Z,16.92
2022-10-31T04:24:57.113Z,17.40
2022-10-31T04:25:28.704Z,16.23
2022-10-31T04:26:00.115Z,17.40
2022-10-31T04:26:31.387Z,15.20
2022-10-31T04:27:02.733Z,16.52
2022-10-31T04:27:34.032Z,16.60
2022-10-31T04:28:05.532Z,15.35
2022-10-31T04:28:37.226Z,14.63
2022-10-31T04:29:08.533Z,14.60
2022-10-31T04:29:39.797Z,14.35
2022-10-31T04:30:11.395Z,14.60
2022-10-31T04:30:42.690Z,14.57
2022-10-31T04:31:15.262Z,15.75
2022-10-31T04:31:46.533Z,15.75
2022-10-31T04:32:18.513Z,16.00
2022-10-31T04:32:49.858Z,15.65
2022-10-31T04:33:21.434Z,14.93
2022-10-31T04:33:52.696Z,14.20
2022-10-31T04:34:24.005Z,14.75
2022-10-31T04:34:55.288Z,13.80
2022-10-31T04:35:26.806Z,14.02
2022-10-31T04:35:58.072Z,14.60
2022-10-31T04:36:29.348Z,13.82
2022-10-31T04:37:00.641Z,13.93
2022-10-31T04:37:31.937Z,13.82
2022-10-31T04:38:03.325Z,14.68
2022-10-31T04:38:34.645Z,15.73
2022-10-31T04:39:05.937Z,15.35
2022-10-31T04:39:37.263Z,15.18
2022-10-31T04:40:09.152Z,14.98
2022-10-31T04:40:40.475Z,15.32
2022-10-31T04:41:11.756Z,15.95
2022-10-31T04:41:43.020Z,16.40
2022-10-31T04:42:14.352Z,14.95
2022-10-31T04:42:45.641Z,15.68
2022-10-31T04:43:17.052Z,16.45
2022-10-31T04:43:48.371Z,14.75
2022-10-31T04:44:19.670Z,14.57
2022-10-31T04:44:50.939Z,14.50
2022-10-31T04:45:22.249Z,14.63
2022-10-31T04:45:53.562Z,14.50
2022-10-31T04:46:24.830Z,14.30
2022-10-31T04:46:56.118Z,14.18
2022-10-31T04:47:27.414Z,13.43
2022-10-31T04:47:58.911Z,14.57
2022-10-31T04:48:30.554Z,14.00
2022-10-31T04:49:01.884Z,14.48
2022-10-31T04:49:33.214Z,15.30
2022-10-31T04:50:04.826Z,15.10
2022-10-31T04:50:36.224Z,16.17
2022-10-31T04:51:07.504Z,16.58
2022-10-31T04:51:38.778Z,17.08
2022-10-31T04:52:10.144Z,17.13
2022-10-31T04:52:45.411Z,17.55
2022-10-31T04:53:16.693Z,16.85
2022-10-31T04:53:47.985Z,17.13
2022-10-31T04:54:19.264Z,16.77
2022-10-31T04:54:50.523Z,18.17
2022-10-31T04:55:21.853Z,19.77
2022-10-31T04:55:53.211Z,19.58
2022-10-31T04:56:24.550Z,20.33
2022-10-31T04:56:55.822Z,18.13
2022-10-31T04:57:27.147Z,19.02
2022-10-31T04:57:59.060Z,19.88
2022-10-31T04:58:30.649Z,21.60
2022-10-31T04:59:02.013Z,20.75
2022-10-31T04:59:33.305Z,18.98
2022-10-31T05:00:04.974Z,20.67
2022-10-31T05:00:36.247Z,19.00
2022-10-31T05:01:07.664Z,18.25
2022-10-31T05:01:39.127Z,18.25
2022-10-31T05:02:10.677Z,17.95
2022-10-31T05:02:49.329Z,17.65
2022-10-31T05:03:20.722Z,16.90
2022-10-31T05:03:52.100Z,17.35
2022-10-31T05:04:23.555Z,17.35
2022-10-31T05:04:54.883Z,17.27
2022-10-31T05:05:29.607Z,19.02
2022-10-31T05:06:00.897Z,18.60
2022-10-31T05:06:32.188Z,19.35
2022-10-31T05:07:03.466Z,19.00
2022-10-31T05:07:39.270Z,19.58
2022-10-31T05:08:10.596Z,19.75
2022-10-31T05:08:41.890Z,20.38
2022-10-31T05:09:13.188Z,20.00
2022-10-31T05:09:44.486Z,19.52
2022-10-31T05:10:19.357Z,19.75
2022-10-31T05:10:50.633Z,18.25
2022-10-31T05:11:21.911Z,16.98
2022-10-31T05:11:53.246Z,16.17
2022-10-31T05:12:24.508Z,16.33
2022-10-31T05:13:01.641Z,16.02
2022-10-31T05:13:33.393Z,15.85
2022-10-31T05:14:04.681Z,14.50
2022-10-31T05:14:35.974Z,15.05
2022-10-31T05:15:07.598Z,15.45
2022-10-31T05:15:38.973Z,15.45
2022-10-31T05:16:10.314Z,14.68
2022-10-31T05:16:41.626Z,15.00
2022-10-31T05:17:12.905Z,15.05
2022-10-31T05:17:44.877Z,15.15
2022-10-31T05:18:16.163Z,16.15
2022-10-31T05:18:47.475Z,15.82
2022-10-31T05:19:18.761Z,15.63
2022-10-31T05:19:50.066Z,15.65
2022-10-31T05:20:26.602Z,17.58
2022-10-31T05:20:57.882Z,17.90
2022-10-31T05:21:29.151Z,19.67
2022-10-31T05:22:00.449Z,18.60
2022-10-31T05:22:31.761Z,19.02
2022-10-31T05:23:03.061Z,19.40
2022-10-31T05:23:34.349Z,19.67
2022-10-31T05:24:05.914Z,19.45
2022-10-31T05:24:37.377Z,19.95
2022-10-31T05:25:09.025Z,19.67
2022-10-31T05:25:41.575Z,20.08
2022-10-31T05:26:12.868Z,20.60
2022-10-31T05:26:44.147Z,19.92
2022-10-31T05:27:15.460Z,20.40
2022-10-31T05:27:48.879Z,20.77
2022-10-31T05:28:20.211Z,20.52
2022-10-31T05:28:51.568Z,21.00
2022-10-31T05:29:22.854Z,20.90
2022-10-31T05:29:54.239Z,21.60
2022-10-31T05:30:28.833Z,21.60
2022-10-31T05:31:00.130Z,20.35
2022-10-31T05:31:31.416Z,20.33
2022-10-31T05:32:02.730Z,21.00
2022-10-31T05:32:41.372Z,19.95
2022-10-31T05:33:12.762Z,19.58
2022-10-31T05:33:44.032Z,20.20
2022-10-31T05:34:15.307Z,20.85
2022-10-31T05:34:46.630Z,19.55
2022-10-31T05:35:30.144Z,19.13
2022-10-31T05:36:01.479Z,18.55
2022-10-31T05:36:32.757Z,19.17
2022-10-31T05:37:04.035Z,19.85
2022-10-31T05:37:36.463Z,18.42
2022-10-31T05:38:07.723Z,19.60
2022-10-31T05:38:38.990Z,20.50
2022-10-31T05:39:10.718Z,19.30
2022-10-31T05:39:42.006Z,19.23
2022-10-31T05:40:14.909Z,20.30
2022-10-31T05:40:46.257Z,20.20
2022-10-31T05:41:17.543Z,19.42
2022-10-31T05:41:48.928Z,20.25
2022-10-31T05:42:20.197Z,20.55
2022-10-31T05:42:52.941Z,21.80
2022-10-31T05:43:24.541Z,21.75
2022-10-31T05:43:55.835Z,20.85
2022-10-31T05:44:27.196Z,21.60
2022-10-31T05:44:58.534Z,21.50
2022-10-31T05:45:29.853Z,21.95
2022-10-31T05:46:01.165Z,21.92
2022-10-31T05:47:08.687Z,21.83
2022-10-31T05:47:40.154Z,21.42
2022-10-31T05:48:14.017Z,21.48
2022-10-31T05:48:45.353Z,21.50
2022-10-31T05:49:18.263Z,20.77
2022-10-31T05:49:49.781Z,19.58
2022-10-31T05:50:21.633Z,19.30
2022-10-31T05:50:53.149Z,19.02
2022-10-31T05:51:24.438Z,20.08
2022-10-31T05:51:55.720Z,19.10
2022-10-31T05:52:27.052Z,20.23
2022-10-31T05:53:03.933Z,20.40
2022-10-31T05:53:35.213Z,19.60
2022-10-31T05:54:06.482Z,20.83
2022-10-31T05:54:37.780Z,19.98
2022-10-31T05:55:09.252Z,20.35
2022-10-31T05:55:44.199Z,20.67
2022-10-31T05:56:15.504Z,19.27
2022-10-31T05:56:46.793Z,18.70
2022-10-31T05:57:18.149Z,20.42
2022-10-31T05:57:49.436Z,19.08
2022-10-31T05:58:20.730Z,18.38
2022-10-31T05:58:52.053Z,18.33
2022-10-31T05:59:23.550Z,18.98
2022-10-31T05:59:55.311Z,19.45
2022-10-31T06:00:27.912Z,19.33
2022-10-31T06:00:59.205Z,19.33
2022-10-31T06:01:30.588Z,19.42
2022-10-31T06:02:01.965Z,19.40
2022-10-31T06:02:35.294Z,18.63
2022-10-31T06:03:40.952Z,18.42
2022-10-31T06:04:12.330Z,18.20
2022-10-31T06:04:43.720Z,18.23
2022-10-31T06:05:15.863Z,18.95
2022-10-31T06:05:50.702Z,18.65
2022-10-31T06:06:25.385Z,19.35
2022-10-31T06:06:58.230Z,19.92
2022-10-31T06:07:34.085Z,18.95
2022-10-31T06:08:05.666Z,18.40
2022-10-31T06:08:37.409Z,17.65
2022-10-31T06:09:08.750Z,17.40
2022-10-31T06:09:40.033Z,17.40
2022-10-31T06:10:11.629Z,16.52
2022-10-31T06:10:43.087Z,17.63
2022-10-31T06:11:14.359Z,17.58
2022-10-31T06:11:45.637Z,16.55
2022-10-31T06:12:16.917Z,17.02
2022-10-31T06:12:48.642Z,16.95
2022-10-31T06:13:20.102Z,18.23
2022-10-31T06:13:51.390Z,18.25
2022-10-31T06:14:22.693Z,18.65
2022-10-31T06:14:54.001Z,18.63
2022-10-31T06:15:25.557Z,19.23
2022-10-31T06:15:56.836Z,18.80
2022-10-31T06:16:28.564Z,19.25
2022-10-31T06:16:59.873Z,17.67
2022-10-31T06:17:31.180Z,17.30
2022-10-31T06:18:04.870Z,18.27
2022-10-31T06:18:36.166Z,18.40
2022-10-31T06:19:07.446Z,17.42
2022-10-31T06:19:38.761Z,17.33
2022-10-31T06:20:10.886Z,18.05
2022-10-31T06:20:42.153Z,17.17
2022-10-31T06:21:16.352Z,17.50
2022-10-31T06:21:50.290Z,16.95
2022-10-31T06:22:21.583Z,17.35
2022-10-31T06:22:52.929Z,16.92
2022-10-31T06:23:24.295Z,17.70
2022-10-31T06:23:55.576Z,17.17
2022-10-31T06:24:26.844Z,16.27
2022-10-31T06:24:58.317Z,16.65
2022-10-31T06:25:29.686Z,16.52
2022-10-31T06:26:00.964Z,15.98
2022-10-31T06:26:32.260Z,15.90
2022-10-31T06:27:03.644Z,16.35
2022-10-31T06:27:34.923Z,17.35
2022-10-31T06:28:06.609Z,16.80
2022-10-31T06:28:37.922Z,17.65
2022-10-31T06:29:09.189Z,16.90
2022-10-31T06:29:40.470Z,15.50
2022-10-31T06:30:12.228Z,17.20
2022-10-31T06:30:43.601Z,17.10
2022-10-31T06:31:14.930Z,16.65
2022-10-31T06:31:46.262Z,16.25
2022-10-31T06:32:17.757Z,17.15
2022-10-31T06:32:50.322Z,17.27
2022-10-31T06:33:21.673Z,17.40
2022-10-31T06:33:53.015Z,17.65
2022-10-31T06:34:24.337Z,17.08
2022-10-31T06:34:55.669Z,18.05
2022-10-31T06:35:26.940Z,17.40
2022-10-31T06:35:58.449Z,17.30
2022-10-31T06:36:29.724Z,17.13
2022-10-31T06:37:01.023Z,16.65
2022-10-31T06:37:32.306Z,16.13
2022-10-31T06:38:04.083Z,15.48
2022-10-31T06:38:35.800Z,15.63
2022-10-31T06:39:07.210Z,15.93
2022-10-31T06:39:38.706Z,16.35
2022-10-31T06:40:10.646Z,15.27
2022-10-31T06:40:42.162Z,15.43
2022-10-31T06:41:13.486Z,15.02
2022-10-31T06:41:44.780Z,14.20
2022-10-31T06:42:17.267Z,15.52
2022-10-31T06:42:48.630Z,15.35
2022-10-31T06:43:20.732Z,15.45
2022-10-31T06:43:52.007Z,15.57
2022-10-31T06:44:23.344Z,15.10
2022-10-31T06:44:54.653Z,14.93
2022-10-31T06:45:26.737Z,14.07
2022-10-31T06:45:58.329Z,14.32
2022-10-31T06:46:29.621Z,13.80
2022-10-31T06:47:00.896Z,14.35
2022-10-31T06:47:32.441Z,14.30
2022-10-31T06:48:16.497Z,14.95
2022-10-31T06:48:48.855Z,14.38
2022-10-31T06:49:20.169Z,15.27
2022-10-31T06:49:51.485Z,15.38
2022-10-31T06:50:23.802Z,15.52
2022-10-31T06:50:59.781Z,15.80
2022-10-31T06:51:31.343Z,15.70
2022-10-31T06:52:02.753Z,15.52
2022-10-31T06:52:36.930Z,15.93
2022-10-31T06:53:45.153Z,15.93
2022-10-31T06:54:16.848Z,16.08
2022-10-31T06:54:48.141Z,16.05
2022-10-31T06:55:21.484Z,15.35
2022-10-31T06:55:52.868Z,14.73
2022-10-31T06:56:24.154Z,14.63
2022-10-31T06:56:55.422Z,13.65
2022-10-31T06:57:26.712Z,14.25
2022-10-31T06:58:03.146Z,14.15
2022-10-31T06:58:34.854Z,13.93
2022-10-31T06:59:06.188Z,13.90
2022-10-31T06:59:37.502Z,13.70
2022-10-31T07:00:09.306Z,14.60
2022-10-31T07:00:40.705Z,13.27
2022-10-31T07:01:12.171Z,13.02
2022-10-31T07:01:43.734Z,12.90
2022-10-31T07:02:15.209Z,13.60
2022-10-31T07:02:58.529Z,13.43
2022-10-31T07:03:29.865Z,14.10
2022-10-31T07:04:01.160Z,14.23
2022-10-31T07:04:32.541Z,14.15
2022-10-31T07:05:04.096Z,13.68
2022-10-31T07:05:35.383Z,12.95
2022-10-31T07:06:06.800Z,12.70
2022-10-31T07:06:38.132Z,14.10
2022-10-31T07:07:09.440Z,13.07
2022-10-31T07:07:40.728Z,13.25
2022-10-31T07:08:14.778Z,14.18
2022-10-31T07:08:46.166Z,13.32
2022-10-31T07:09:17.461Z,14.02
2022-10-31T07:09:48.751Z,13.90
2022-10-31T07:10:20.190Z,14.38
2022-10-31T07:10:56.446Z,14.98
2022-10-31T07:11:27.733Z,14.55
2022-10-31T07:11:59.165Z,13.93
2022-10-31T07:12:30.436Z,14.18
2022-10-31T07:13:07.931Z,14.38
2022-10-31T07:13:39.215Z,14.13
2022-10-31T07:14:10.490Z,14.70
2022-10-31T07:14:41.845Z,13.50
2022-10-31T07:15:13.428Z,14.85
2022-10-31T07:15:44.914Z,13.65
2022-10-31T07:16:16.203Z,14.52
2022-10-31T07:16:51.778Z,13.80
2022-10-31T07:17:29.738Z,13.88
2022-10-31T07:18:02.362Z,14.15
2022-10-31T07:18:34.890Z,13.77
2022-10-31T07:19:06.197Z,14.70
2022-10-31T07:19:37.570Z,14.15
2022-10-31T07:20:09.501Z,14.38
2022-10-31T07:20:40.913Z,14.70
2022-10-31T07:21:12.292Z,14.73